createdAt,value
2022-10-25T00:00:16.450Z,92.19
2022-10-25T00:02:42.891Z,91.85
2022-10-25T00:05:14.303Z,92.04
2022-10-25T00:10:07.913Z,92.20
2022-10-25T00:15:01.699Z,91.97
2022-10-25T00:17:28.008Z,92.00
2022-10-25T00:19:54.342Z,91.92
2022-10-25T00:22:20.647Z,91.78
2022-10-25T00:24:46.957Z,91.95
2022-10-25T00:27:13.475Z,92.01
2022-10-25T00:29:39.916Z,91.65
2022-10-25T00:32:06.251Z,91.41
2022-10-25T00:36:58.805Z,91.39
2022-10-25T00:39:25.208Z,91.49
2022-10-25T00:41:51.500Z,91.63
2022-10-25T00:44:36.429Z,91.14
2022-10-25T00:49:31.719Z,91.08
2022-10-25T00:52:02.627Z,90.99
2022-10-25T00:57:00.923Z,91.08
2022-10-25T01:01:55.389Z,91.26
2022-10-25T01:04:26.272Z,91.03
2022-10-25T01:06:53.497Z,91.00
2022-10-25T01:09:23.939Z,91.05
2022-10-25T01:11:50.527Z,91.11
2022-10-25T01:17:20.792Z,91.11
2022-10-25T01:22:47.884Z,91.27
2022-10-25T01:25:49.045Z,91.44
2022-10-25T01:28:31.014Z,91.54
2022-10-25T01:31:11.727Z,90.92
2022-10-25T01:38:48.894Z,91.22
2022-10-25T01:41:47.125Z,90.73
2022-10-25T01:47:02.613Z,90.65
2022-10-25T01:49:39.345Z,90.62
2022-10-25T01:52:05.645Z,90.79
2022-10-25T01:54:32.034Z,90.87
2022-10-25T01:59:48.320Z,91.25
2022-10-25T02:02:23.795Z,91.18
2022-10-25T02:07:41.517Z,90.88
2022-10-25T02:12:51.592Z,91.00
2022-10-25T02:15:40.431Z,91.22
2022-10-25T02:18:15.851Z,91.46
2022-10-25T02:20:46.781Z,91.22
2022-10-25T02:23:14.704Z,91.03
2022-10-25T02:35:33.064Z,90.98
2022-10-25T02:37:59.732Z,90.92
2022-10-25T02:42:52.459Z,91.03
2022-10-25T02:45:18.773Z,90.74
2022-10-25T02:47:45.423Z,90.74
2022-10-25T02:50:11.958Z,90.97
2022-10-25T02:52:38.277Z,90.86
2022-10-25T02:55:05.172Z,90.82
2022-10-25T02:57:36.240Z,91.05
2022-10-25T03:00:06.238Z,90.95
2022-10-25T03:04:58.959Z,90.75
2022-10-25T03:07:25.261Z,90.97
2022-10-25T03:09:51.560Z,90.73
2022-10-25T03:12:17.870Z,91.09
2022-10-25T03:14:44.183Z,90.38
2022-10-25T03:17:10.482Z,90.98
2022-10-25T03:22:03.205Z,90.76
2022-10-25T03:24:29.523Z,90.95
2022-10-25T03:26:55.830Z,90.83
2022-10-25T03:31:48.433Z,90.73
2022-10-25T03:34:14.744Z,91.03
2022-10-25T03:41:33.636Z,90.41
2022-10-25T03:43:59.953Z,90.49
2022-10-25T03:48:52.671Z,90.29
2022-10-25T03:56:11.609Z,91.27
2022-10-25T04:01:09.533Z,91.95
2022-10-25T04:03:36.764Z,91.87
2022-10-25T04:10:55.540Z,92.21
2022-10-25T04:13:21.875Z,91.77
2022-10-25T04:15:48.180Z,91.33
2022-10-25T04:23:07.043Z,91.33
2022-10-25T04:28:00.294Z,91.51
2022-10-25T04:30:26.722Z,91.58
2022-10-25T04:37:45.509Z,91.30
2022-10-25T04:45:04.779Z,91.59
2022-10-25T04:47:32.431Z,91.57
2022-10-25T04:52:25.108Z,91.71
2022-10-25T04:54:51.426Z,91.36
2022-10-25T04:59:43.982Z,90.80
2022-10-25T05:02:11.010Z,91.01
2022-10-25T05:04:37.320Z,90.88
2022-10-25T05:07:03.714Z,91.25
2022-10-25T05:09:30.029Z,91.11
2022-10-25T05:19:15.090Z,90.89
2022-10-25T05:21:41.423Z,91.12
2022-10-25T05:24:07.805Z,90.99
2022-10-25T05:26:34.194Z,91.03
2022-10-25T05:29:00.624Z,90.90
2022-10-25T05:34:00.229Z,91.29
2022-10-25T05:36:30.220Z,91.34
2022-10-25T05:43:49.196Z,91.60
2022-10-25T05:46:18.530Z,91.71
2022-10-25T05:54:03.871Z,91.36
2022-10-25T05:56:32.201Z,91.81
2022-10-25T06:01:27.668Z,91.59
2022-10-25T06:03:55.564Z,91.95
2022-10-25T06:06:22.835Z,91.97
2022-10-25T06:08:49.333Z,92.02
2022-10-25T06:11:19.441Z,91.84
2022-10-25T06:13:46.890Z,92.02
2022-10-25T06:16:15.493Z,91.71
2022-10-25T06:18:42.233Z,91.44
2022-10-25T06:21:16.660Z,91.68
2022-10-25T06:26:16.010Z,91.82
2022-10-25T06:28:43.469Z,91.60
2022-10-25T06:31:11.970Z,91.62
2022-10-25T06:33:38.879Z,91.37
2022-10-25T06:36:07.287Z,91.54
2022-10-25T06:38:34.062Z,91.52
2022-10-25T06:48:20.928Z,91.22
2022-10-25T06:53:18.470Z,91.32
2022-10-25T06:58:13.301Z,91.73
2022-10-25T07:00:39.597Z,91.53
2022-10-25T07:03:05.907Z,91.48
2022-10-25T07:10:24.805Z,91.30
2022-10-25T07:12:51.180Z,91.38
2022-10-25T07:15:17.545Z,91.13
2022-10-25T07:17:43.993Z,90.58
2022-10-25T07:20:10.807Z,90.80
2022-10-25T07:22:37.132Z,90.58
2022-10-25T07:25:03.949Z,90.36
2022-10-25T07:27:32.017Z,90.12
2022-10-25T07:29:58.442Z,90.28
2022-10-25T07:32:24.953Z,90.88
2022-10-25T07:34:51.274Z,91.15
2022-10-25T07:37:17.596Z,90.82
2022-10-25T07:39:43.965Z,90.63
2022-10-25T07:44:36.576Z,90.68
2022-10-25T07:47:02.938Z,90.76
2022-10-25T07:49:29.272Z,90.73
2022-10-25T07:51:55.581Z,90.87
2022-10-25T07:56:48.134Z,90.57
2022-10-25T07:59:14.517Z,90.77
2022-10-25T08:01:40.912Z,90.63
2022-10-25T08:04:07.323Z,90.27
2022-10-25T08:06:35.952Z,90.57
2022-10-25T08:09:09.784Z,90.74
2022-10-25T08:14:07.767Z,90.43
2022-10-25T08:16:34.065Z,90.55
2022-10-25T08:19:00.392Z,90.31
2022-10-25T08:21:26.769Z,90.42
2022-10-25T08:23:53.123Z,89.74
2022-10-25T08:26:24.907Z,89.84
2022-10-25T08:28:51.229Z,90.54
2022-10-25T08:31:17.746Z,90.52
2022-10-25T08:33:45.524Z,90.59
2022-10-25T08:36:11.857Z,89.88
2022-10-25T08:38:38.176Z,90.51
2022-10-25T08:41:16.007Z,89.67
2022-10-25T08:49:19.719Z,90.17
2022-10-25T08:54:23.166Z,89.68
2022-10-25T08:57:15.181Z,88.67
2022-10-25T09:02:18.116Z,89.25
2022-10-25T09:04:44.636Z,88.66
2022-10-25T09:07:31.558Z,88.84
2022-10-25T09:10:09.372Z,88.79
2022-10-25T09:17:43.780Z,88.04
2022-10-25T09:20:33.116Z,88.00
2022-10-25T09:28:32.288Z,87.35
2022-10-25T09:35:58.559Z,87.01
2022-10-25T09:41:16.180Z,86.49
2022-10-25T09:44:00.378Z,86.06
2022-10-25T09:46:42.173Z,86.23
2022-10-25T09:49:47.057Z,86.40
2022-10-25T09:52:34.686Z,86.36
2022-10-25T09:57:47.096Z,87.06
2022-10-25T10:00:14.889Z,86.81
2022-10-25T10:02:41.505Z,87.42
2022-10-25T10:05:19.537Z,86.79
2022-10-25T10:07:48.369Z,87.28
2022-10-25T10:10:26.673Z,87.17
2022-10-25T10:13:11.817Z,85.60
2022-10-25T10:15:53.469Z,85.01
2022-10-25T10:18:34.481Z,85.44
2022-10-25T10:21:02.051Z,85.40
2022-10-25T10:25:56.772Z,85.60
2022-10-25T10:28:23.234Z,85.35
2022-10-25T10:33:20.602Z,83.98
2022-10-25T10:35:46.901Z,83.69
2022-10-25T10:38:29.155Z,83.34
2022-10-25T10:43:40.109Z,83.21
2022-10-25T10:54:12.909Z,82.39
2022-10-25T10:56:39.531Z,82.40
2022-10-25T10:59:05.836Z,82.38
2022-10-25T11:04:01.255Z,83.13
2022-10-25T11:06:35.049Z,82.01
2022-10-25T11:09:19.208Z,81.86
2022-10-25T11:12:03.366Z,81.28
2022-10-25T11:14:29.849Z,80.71
2022-10-25T11:17:01.414Z,80.72
2022-10-25T11:19:42.641Z,80.72
2022-10-25T11:30:09.727Z,81.94
2022-10-25T11:32:51.565Z,82.21
2022-10-25T11:35:26.988Z,82.10
2022-10-25T11:38:03.146Z,81.42
2022-10-25T11:40:32.646Z,80.46
2022-10-25T11:43:33.937Z,79.41
2022-10-25T11:49:22.704Z,78.13
2022-10-25T11:57:29.629Z,78.73
2022-10-25T12:00:12.973Z,78.96
2022-10-25T12:03:01.308Z,79.30
2022-10-25T12:05:35.884Z,80.59
2022-10-25T12:13:20.424Z,80.31
2022-10-25T12:21:04.166Z,79.50
2022-10-25T12:28:45.812Z,77.48
2022-10-25T12:31:27.243Z,75.70
2022-10-25T12:39:12.900Z,75.85
2022-10-25T12:47:27.163Z,75.55
2022-10-25T12:55:29.245Z,76.33
2022-10-25T12:58:14.320Z,75.78
2022-10-25T13:01:04.337Z,76.09
2022-10-25T13:03:38.384Z,77.88
2022-10-25T13:06:20.561Z,76.54
2022-10-25T13:08:47.405Z,77.56
2022-10-25T13:13:51.717Z,76.97
2022-10-25T13:16:30.710Z,76.83
2022-10-25T13:19:36.031Z,75.76
2022-10-25T13:22:34.110Z,77.19
2022-10-25T13:30:08.336Z,76.54
2022-10-25T13:32:37.365Z,76.66
2022-10-25T13:37:54.432Z,77.13
2022-10-25T13:48:09.609Z,77.51
2022-10-25T13:50:49.175Z,77.41
2022-10-25T13:53:41.927Z,78.00
2022-10-25T13:56:35.653Z,77.11
2022-10-25T13:59:02.219Z,77.84
2022-10-25T14:01:31.057Z,77.13
2022-10-25T14:04:03.475Z,75.68
2022-10-25T14:06:36.930Z,76.63
2022-10-25T14:11:48.486Z,77.21
2022-10-25T14:14:53.110Z,76.82
2022-10-25T14:17:34.749Z,76.11
2022-10-25T14:20:30.243Z,76.43
2022-10-25T14:23:00.549Z,76.51
2022-10-25T14:25:39.852Z,77.53
2022-10-25T14:28:20.893Z,77.24
2022-10-25T14:30:50.164Z,77.52
2022-10-25T14:38:22.585Z,78.11
2022-10-25T14:40:57.808Z,78.67
2022-10-25T14:43:33.129Z,78.15
2022-10-25T14:46:02.650Z,78.12
2022-10-25T14:53:24.118Z,78.10
2022-10-25T14:55:56.173Z,78.07
2022-10-25T15:03:21.256Z,78.42
2022-10-25T15:05:47.768Z,78.54
2022-10-25T15:08:19.746Z,78.11
2022-10-25T15:10:49.972Z,78.33
2022-10-25T15:13:28.516Z,78.50
2022-10-25T15:15:56.028Z,78.54
2022-10-25T15:26:24.001Z,77.07
2022-10-25T15:33:59.903Z,77.41
2022-10-25T15:39:16.845Z,75.93
2022-10-25T15:44:09.201Z,74.94
2022-10-25T15:46:36.257Z,74.67
2022-10-25T15:49:08.119Z,74.83
2022-10-25T16:03:48.313Z,75.93
2022-10-25T16:06:14.733Z,76.10
2022-10-25T16:08:41.986Z,76.15
2022-10-25T16:11:15.341Z,76.10
2022-10-25T16:21:37.216Z,75.71
2022-10-25T16:24:03.600Z,75.69
2022-10-25T16:26:35.872Z,76.01
2022-10-25T16:33:55.037Z,76.39
2022-10-25T16:38:48.081Z,76.69
2022-10-25T16:41:32.254Z,76.95
2022-10-25T16:48:51.984Z,77.88
2022-10-25T16:53:48.523Z,78.21
2022-10-25T16:58:41.928Z,78.94
2022-10-25T17:01:39.028Z,79.16
2022-10-25T17:04:09.457Z,79.37
2022-10-25T17:06:41.164Z,79.53
2022-10-25T17:09:08.614Z,79.78
2022-10-25T17:11:35.971Z,79.92
2022-10-25T17:14:02.284Z,79.87
2022-10-25T17:18:54.903Z,80.16
2022-10-25T17:21:21.223Z,80.38
2022-10-25T17:28:44.136Z,81.30
2022-10-25T17:31:13.093Z,81.23
2022-10-25T17:33:40.508Z,81.27
2022-10-25T17:36:09.146Z,81.55
2022-10-25T17:41:02.069Z,81.58
2022-10-25T17:43:28.505Z,81.91
2022-10-25T17:45:59.851Z,82.45
2022-10-25T17:53:18.785Z,83.81
2022-10-25T17:55:45.170Z,84.14
2022-10-25T17:58:12.312Z,84.34
2022-10-25T18:00:38.622Z,84.57
2022-10-25T18:03:05.083Z,84.51
2022-10-25T18:05:31.477Z,84.78
2022-10-25T18:07:57.808Z,84.77
2022-10-25T18:10:24.152Z,84.87
2022-10-25T18:12:50.773Z,84.88
2022-10-25T18:15:17.609Z,85.42
2022-10-25T18:17:46.126Z,85.41
2022-10-25T18:20:13.243Z,85.66
2022-10-25T18:22:39.641Z,85.91
2022-10-25T18:25:06.505Z,86.14
2022-10-25T18:27:32.815Z,86.50
2022-10-25T18:37:27.965Z,87.80
2022-10-25T18:39:54.480Z,87.82
2022-10-25T18:42:20.894Z,87.72
2022-10-25T18:44:47.288Z,87.88
2022-10-25T18:47:13.701Z,87.94
2022-10-25T18:49:40.040Z,88.06
2022-10-25T18:52:06.430Z,88.08
2022-10-25T18:54:32.727Z,88.28
2022-10-25T18:56:59.016Z,88.13
2022-10-25T18:59:25.336Z,88.49
2022-10-25T19:01:51.837Z,88.66
2022-10-25T19:09:10.983Z,88.94
2022-10-25T19:14:05.024Z,89.04
2022-10-25T19:16:31.705Z,88.92
2022-10-25T19:21:27.649Z,89.11
2022-10-25T19:23:54.128Z,89.14
2022-10-25T19:28:54.495Z,89.33
2022-10-25T19:31:20.960Z,89.49
2022-10-25T19:33:49.168Z,89.80
2022-10-25T19:36:16.649Z,89.77
2022-10-25T19:41:14.889Z,90.07
2022-10-25T19:43:41.198Z,90.67
2022-10-25T19:46:07.751Z,91.29
2022-10-25T19:53:32.337Z,92.00
2022-10-25T19:56:04.216Z,92.05
2022-10-25T19:58:30.824Z,92.48
2022-10-25T20:01:07.609Z,92.53
2022-10-25T20:03:35.499Z,92.48
2022-10-25T20:06:17.483Z,92.61
2022-10-25T20:13:40.347Z,92.81
2022-10-25T20:18:35.940Z,93.01
2022-10-25T20:21:08.269Z,93.08
2022-10-25T20:26:16.193Z,93.15
2022-10-25T20:28:42.947Z,93.28
2022-10-25T20:31:10.141Z,93.32
2022-10-25T20:36:07.314Z,93.67
2022-10-25T20:38:34.760Z,93.56
2022-10-25T20:41:05.765Z,93.75
2022-10-25T20:43:32.587Z,93.71
2022-10-25T20:45:59.146Z,93.94
2022-10-25T20:48:25.541Z,93.87
2022-10-25T20:50:53.128Z,93.96
2022-10-25T20:53:20.777Z,94.05
2022-10-25T20:55:48.330Z,93.94
2022-10-25T20:58:16.328Z,93.92
2022-10-25T21:03:09.301Z,94.02
2022-10-25T21:05:36.822Z,94.02
2022-10-25T21:08:06.251Z,94.15
2022-10-25T21:10:32.552Z,94.26
2022-10-25T21:12:58.843Z,94.14
2022-10-25T21:15:25.129Z,94.33
2022-10-25T21:20:18.014Z,94.46
2022-10-25T21:22:46.229Z,94.45
2022-10-25T21:27:38.789Z,94.61
2022-10-25T21:30:05.948Z,94.51
2022-10-25T21:32:33.152Z,94.71
2022-10-25T21:34:59.439Z,94.84
2022-10-25T21:37:26.685Z,94.86
2022-10-25T21:42:19.297Z,94.91
2022-10-25T21:44:45.604Z,94.93
2022-10-25T21:47:12.240Z,94.93
2022-10-25T21:49:38.728Z,94.89
2022-10-25T21:52:05.160Z,94.96
2022-10-25T21:54:31.470Z,95.06
2022-10-25T21:56:57.762Z,95.12
2022-10-25T21:59:24.117Z,95.22
2022-10-25T22:01:50.553Z,95.20
2022-10-25T22:04:16.944Z,95.22
2022-10-25T22:06:43.257Z,95.34
2022-10-25T22:09:09.605Z,95.40
2022-10-25T22:11:38.599Z,95.33
2022-10-25T22:14:08.055Z,95.42
2022-10-25T22:16:34.624Z,95.60
2022-10-25T22:24:00.620Z,95.61
2022-10-25T22:26:27.253Z,95.61
2022-10-25T22:28:55.670Z,95.59
2022-10-25T22:31:22.756Z,95.48
2022-10-25T22:33:54.660Z,95.43
2022-10-25T22:36:22.712Z,95.49
2022-10-25T22:38:49.298Z,95.41
2022-10-25T22:46:27.017Z,95.21
2022-10-25T22:48:55.410Z,95.18
2022-10-25T22:51:23.025Z,95.06
2022-10-25T22:53:49.421Z,95.02
2022-10-25T22:56:24.718Z,94.96
2022-10-25T23:01:24.818Z,95.01
2022-10-25T23:03:54.522Z,95.01
2022-10-25T23:06:26.554Z,95.13
2022-10-25T23:08:54.296Z,95.20
2022-10-25T23:11:22.759Z,95.38
2022-10-25T23:13:49.449Z,95.46
2022-10-25T23:16:16.709Z,95.55
2022-10-25T23:18:43.505Z,95.68
2022-10-25T23:21:16.117Z,95.74
2022-10-25T23:23:42.952Z,95.77
2022-10-25T23:28:38.661Z,95.82
2022-10-25T23:31:10.819Z,95.93
2022-10-25T23:33:37.935Z,96.13
2022-10-25T23:36:10.552Z,95.99
2022-10-25T23:38:37.467Z,96.22
2022-10-25T23:41:04.840Z,96.21
2022-10-25T23:43:32.028Z,96.19
2022-10-25T23:45:58.352Z,96.33
2022-10-25T23:48:24.989Z,96.31
2022-10-25T23:50:56.356Z,96.43
2022-10-25T23:53:23.094Z,96.50
2022-10-25T23:55:49.404Z,96.71
2022-10-25T23:58:15.739Z,96.88
